sensor_id;sensor_type;location;lat;lon;timestamp;temperature;humidity
23377;DHT22;14353;46.070;13.222;2023-07-13T00:02:07;32.20;51.00
23377;DHT22;14353;46.070;13.222;2023-07-13T00:04:33;32.20;51.10
23377;DHT22;14353;46.070;13.222;2023-07-13T00:06:59;32.20;51.10
23377;DHT22;14353;46.070;13.222;2023-07-13T00:09:25;32.10;51.00
23377;DHT22;14353;46.070;13.222;2023-07-13T00:11:54;32.20;51.10
23377;DHT22;14353;46.070;13.222;2023-07-13T00:14:20;32.10;51.10
23377;DHT22;14353;46.070;13.222;2023-07-13T00:16:47;32.10;51.10
23377;DHT22;14353;46.070;13.222;2023-07-13T00:19:13;32.10;51.10
23377;DHT22;14353;46.070;13.222;2023-07-13T00:21:40;32.10;51.10
23377;DHT22;14353;46.070;13.222;2023-07-13T00:24:11;32.10;51.20
23377;DHT22;14353;46.070;13.222;2023-07-13T00:26:41;32.10;51.20
23377;DHT22;14353;46.070;13.222;2023-07-13T00:29:10;32.10;51.30
23377;DHT22;14353;46.070;13.222;2023-07-13T00:31:36;32.10;51.20
23377;DHT22;14353;46.070;13.222;2023-07-13T00:34:02;32.00;51.20
23377;DHT22;14353;46.070;13.222;2023-07-13T00:36:29;32.00;51.30
23377;DHT22;14353;46.070;13.222;2023-07-13T00:38:55;32.00;51.30
23377;DHT22;14353;46.070;13.222;2023-07-13T00:41:20;32.00;51.30
23377;DHT22;14353;46.070;13.222;2023-07-13T00:43:46;32.00;51.40
23377;DHT22;14353;46.070;13.222;2023-07-13T00:46:22;31.90;51.30
23377;DHT22;14353;46.070;13.222;2023-07-13T00:48:49;31.90;51.30
23377;DHT22;14353;46.070;13.222;2023-07-13T00:51:18;31.90;51.40
23377;DHT22;14353;46.070;13.222;2023-07-13T00:53:45;31.90;51.40
23377;DHT22;14353;46.070;13.222;2023-07-13T00:56:11;31.90;51.40
23377;DHT22;14353;46.070;13.222;2023-07-13T00:58:37;31.90;51.50
23377;DHT22;14353;46.070;13.222;2023-07-13T01:01:03;31.80;51.40
23377;DHT22;14353;46.070;13.222;2023-07-13T01:03:29;31.90;51.50
23377;DHT22;14353;46.070;13.222;2023-07-13T01:05:55;31.80;51.60
23377;DHT22;14353;46.070;13.222;2023-07-13T01:08:21;31.80;51.50
23377;DHT22;14353;46.070;13.222;2023-07-13T01:10:55;31.80;51.50
23377;DHT22;14353;46.070;13.222;2023-07-13T01:13:21;31.80;51.50
23377;DHT22;14353;46.070;13.222;2023-07-13T01:15:48;31.80;51.50
23377;DHT22;14353;46.070;13.222;2023-07-13T01:18:18;31.80;51.60
23377;DHT22;14353;46.070;13.222;2023-07-13T01:23:17;31.80;51.60
23377;DHT22;14353;46.070;13.222;2023-07-13T01:25:42;31.80;51.60
23377;DHT22;14353;46.070;13.222;2023-07-13T01:28:08;31.80;51.70
23377;DHT22;14353;46.070;13.222;2023-07-13T01:30:38;31.80;51.80
23377;DHT22;14353;46.070;13.222;2023-07-13T01:33:07;31.80;51.80
23377;DHT22;14353;46.070;13.222;2023-07-13T01:35:33;31.80;51.80
23377;DHT22;14353;46.070;13.222;2023-07-13T01:37:59;31.70;51.70
23377;DHT22;14353;46.070;13.222;2023-07-13T01:40:26;31.70;51.70
23377;DHT22;14353;46.070;13.222;2023-07-13T01:42:52;31.70;51.70
23377;DHT22;14353;46.070;13.222;2023-07-13T01:45:18;31.70;51.70
23377;DHT22;14353;46.070;13.222;2023-07-13T01:47:44;31.70;51.70
23377;DHT22;14353;46.070;13.222;2023-07-13T01:50:10;31.70;51.70
23377;DHT22;14353;46.070;13.222;2023-07-13T01:52:35;31.70;51.80
23377;DHT22;14353;46.070;13.222;2023-07-13T01:55:01;31.70;51.80
23377;DHT22;14353;46.070;13.222;2023-07-13T01:57:27;31.70;51.70
23377;DHT22;14353;46.070;13.222;2023-07-13T01:59:53;31.70;51.70
23377;DHT22;14353;46.070;13.222;2023-07-13T02:02:19;31.70;51.80
23377;DHT22;14353;46.070;13.222;2023-07-13T02:04:45;31.60;51.70
23377;DHT22;14353;46.070;13.222;2023-07-13T02:07:10;31.60;51.70
23377;DHT22;14353;46.070;13.222;2023-07-13T02:09:36;31.60;51.80
23377;DHT22;14353;46.070;13.222;2023-07-13T02:12:02;31.60;51.80
23377;DHT22;14353;46.070;13.222;2023-07-13T02:14:28;31.60;51.80
23377;DHT22;14353;46.070;13.222;2023-07-13T02:16:54;31.60;51.80
23377;DHT22;14353;46.070;13.222;2023-07-13T02:19:20;31.60;51.80
23377;DHT22;14353;46.070;13.222;2023-07-13T02:21:45;31.60;51.80
23377;DHT22;14353;46.070;13.222;2023-07-13T02:24:11;31.60;51.80
23377;DHT22;14353;46.070;13.222;2023-07-13T02:26:43;31.60;51.80
23377;DHT22;14353;46.070;13.222;2023-07-13T02:29:10;31.60;51.80
23377;DHT22;14353;46.070;13.222;2023-07-13T02:31:36;31.60;51.90
23377;DHT22;14353;46.070;13.222;2023-07-13T02:34:02;31.60;51.90
23377;DHT22;14353;46.070;13.222;2023-07-13T02:36:28;31.60;51.90
23377;DHT22;14353;46.070;13.222;2023-07-13T02:38:54;31.50;51.80
23377;DHT22;14353;46.070;13.222;2023-07-13T02:41:20;31.60;51.90
23377;DHT22;14353;46.070;13.222;2023-07-13T02:43:46;31.50;51.90
23377;DHT22;14353;46.070;13.222;2023-07-13T02:46:12;31.50;51.90
23377;DHT22;14353;46.070;13.222;2023-07-13T02:48:38;31.50;52.00
23377;DHT22;14353;46.070;13.222;2023-07-13T02:51:04;31.50;51.90
23377;DHT22;14353;46.070;13.222;2023-07-13T02:53:30;31.50;51.90
23377;DHT22;14353;46.070;13.222;2023-07-13T02:55:56;31.50;52.00
23377;DHT22;14353;46.070;13.222;2023-07-13T02:58:22;31.50;52.00
23377;DHT22;14353;46.070;13.222;2023-07-13T03:00:48;31.50;52.00
23377;DHT22;14353;46.070;13.222;2023-07-13T03:03:15;31.50;52.00
23377;DHT22;14353;46.070;13.222;2023-07-13T03:05:43;31.50;52.00
23377;DHT22;14353;46.070;13.222;2023-07-13T03:08:11;31.40;51.90
23377;DHT22;14353;46.070;13.222;2023-07-13T03:10:37;31.50;52.00
23377;DHT22;14353;46.070;13.222;2023-07-13T03:13:03;31.40;52.00
23377;DHT22;14353;46.070;13.222;2023-07-13T03:15:29;31.40;52.00
23377;DHT22;14353;46.070;13.222;2023-07-13T03:17:55;31.40;52.00
23377;DHT22;14353;46.070;13.222;2023-07-13T03:20:20;31.40;52.00
23377;DHT22;14353;46.070;13.222;2023-07-13T03:22:46;31.40;52.00
23377;DHT22;14353;46.070;13.222;2023-07-13T03:25:12;31.40;52.00
23377;DHT22;14353;46.070;13.222;2023-07-13T03:27:38;31.40;52.00
23377;DHT22;14353;46.070;13.222;2023-07-13T03:30:05;31.40;52.10
23377;DHT22;14353;46.070;13.222;2023-07-13T03:32:30;31.40;52.00
23377;DHT22;14353;46.070;13.222;2023-07-13T03:34:56;31.40;52.00
23377;DHT22;14353;46.070;13.222;2023-07-13T03:37:22;31.40;52.10
23377;DHT22;14353;46.070;13.222;2023-07-13T03:39:48;31.40;52.10
23377;DHT22;14353;46.070;13.222;2023-07-13T03:42:14;31.40;52.10
23377;DHT22;14353;46.070;13.222;2023-07-13T03:44:40;31.40;52.10
23377;DHT22;14353;46.070;13.222;2023-07-13T03:47:06;31.40;52.10
23377;DHT22;14353;46.070;13.222;2023-07-13T03:49:34;31.40;52.10
23377;DHT22;14353;46.070;13.222;2023-07-13T03:52:00;31.40;52.10
23377;DHT22;14353;46.070;13.222;2023-07-13T03:54:26;31.40;52.10
23377;DHT22;14353;46.070;13.222;2023-07-13T03:56:51;31.40;52.10
23377;DHT22;14353;46.070;13.222;2023-07-13T03:59:17;31.40;52.20
23377;DHT22;14353;46.070;13.222;2023-07-13T04:01:44;31.40;52.10
23377;DHT22;14353;46.070;13.222;2023-07-13T04:04:09;31.40;52.10
23377;DHT22;14353;46.070;13.222;2023-07-13T04:06:35;31.30;52.00
23377;DHT22;14353;46.070;13.222;2023-07-13T04:09:02;31.30;52.70
23377;DHT22;14353;46.070;13.222;2023-07-13T04:11:31;31.40;52.20
23377;DHT22;14353;46.070;13.222;2023-07-13T04:13:58;31.40;52.10
23377;DHT22;14353;46.070;13.222;2023-07-13T04:16:23;31.40;52.10
23377;DHT22;14353;46.070;13.222;2023-07-13T04:18:50;31.40;52.10
23377;DHT22;14353;46.070;13.222;2023-07-13T04:21:16;31.40;52.10
23377;DHT22;14353;46.070;13.222;2023-07-13T04:23:42;31.40;52.10
23377;DHT22;14353;46.070;13.222;2023-07-13T04:26:09;31.30;52.00
23377;DHT22;14353;46.070;13.222;2023-07-13T04:28:34;31.40;52.10
23377;DHT22;14353;46.070;13.222;2023-07-13T04:31:01;31.30;52.00
23377;DHT22;14353;46.070;13.222;2023-07-13T04:33:27;31.40;52.10
23377;DHT22;14353;46.070;13.222;2023-07-13T04:35:54;31.30;52.00
23377;DHT22;14353;46.070;13.222;2023-07-13T04:38:31;31.30;52.00
23377;DHT22;14353;46.070;13.222;2023-07-13T04:41:03;31.40;52.10
23377;DHT22;14353;46.070;13.222;2023-07-13T04:43:30;31.30;52.00
23377;DHT22;14353;46.070;13.222;2023-07-13T04:45:57;31.40;52.10
23377;DHT22;14353;46.070;13.222;2023-07-13T04:48:24;31.40;52.00
23377;DHT22;14353;46.070;13.222;2023-07-13T04:50:57;31.40;52.00
23377;DHT22;14353;46.070;13.222;2023-07-13T04:53:24;31.40;52.00
23377;DHT22;14353;46.070;13.222;2023-07-13T04:55:50;31.40;52.00
23377;DHT22;14353;46.070;13.222;2023-07-13T04:58:15;31.40;52.00
23377;DHT22;14353;46.070;13.222;2023-07-13T05:00:41;31.40;52.00
23377;DHT22;14353;46.070;13.222;2023-07-13T05:03:07;31.30;51.90
23377;DHT22;14353;46.070;13.222;2023-07-13T05:05:33;31.30;51.90
23377;DHT22;14353;46.070;13.222;2023-07-13T05:07:59;31.30;52.60
23377;DHT22;14353;46.070;13.222;2023-07-13T05:10:25;31.30;52.00
23377;DHT22;14353;46.070;13.222;2023-07-13T05:12:51;31.40;52.00
23377;DHT22;14353;46.070;13.222;2023-07-13T05:15:18;31.40;51.90
23377;DHT22;14353;46.070;13.222;2023-07-13T05:17:48;31.40;51.90
23377;DHT22;14353;46.070;13.222;2023-07-13T05:20:13;31.40;51.90
23377;DHT22;14353;46.070;13.222;2023-07-13T05:22:39;31.40;51.90
23377;DHT22;14353;46.070;13.222;2023-07-13T05:25:06;31.40;51.90
23377;DHT22;14353;46.070;13.222;2023-07-13T05:27:32;31.40;51.90
23377;DHT22;14353;46.070;13.222;2023-07-13T05:29:58;31.40;51.90
23377;DHT22;14353;46.070;13.222;2023-07-13T05:32:24;31.30;51.80
23377;DHT22;14353;46.070;13.222;2023-07-13T05:34:49;31.40;51.80
23377;DHT22;14353;46.070;13.222;2023-07-13T05:37:15;31.40;51.90
23377;DHT22;14353;46.070;13.222;2023-07-13T05:39:40;31.40;51.20
23377;DHT22;14353;46.070;13.222;2023-07-13T05:42:06;31.30;50.80
23377;DHT22;14353;46.070;13.222;2023-07-13T05:44:32;31.20;50.70
23377;DHT22;14353;46.070;13.222;2023-07-13T05:46:58;31.20;51.00
23377;DHT22;14353;46.070;13.222;2023-07-13T05:49:23;31.10;50.90
23377;DHT22;14353;46.070;13.222;2023-07-13T05:51:49;31.00;50.80
23377;DHT22;14353;46.070;13.222;2023-07-13T05:54:15;31.00;51.00
23377;DHT22;14353;46.070;13.222;2023-07-13T05:56:41;30.90;51.10
23377;DHT22;14353;46.070;13.222;2023-07-13T05:59:07;30.90;51.30
23377;DHT22;14353;46.070;13.222;2023-07-13T06:01:32;30.80;51.40
23377;DHT22;14353;46.070;13.222;2023-07-13T06:03:58;30.80;51.60
23377;DHT22;14353;46.070;13.222;2023-07-13T06:06:24;30.80;51.70
23377;DHT22;14353;46.070;13.222;2023-07-13T06:08:50;30.80;51.80
23377;DHT22;14353;46.070;13.222;2023-07-13T06:11:18;30.70;51.70
23377;DHT22;14353;46.070;13.222;2023-07-13T06:13:45;30.70;51.70
23377;DHT22;14353;46.070;13.222;2023-07-13T06:16:11;30.70;51.80
23377;DHT22;14353;46.070;13.222;2023-07-13T06:18:39;30.70;51.80
23377;DHT22;14353;46.070;13.222;2023-07-13T06:21:14;30.70;51.90
23377;DHT22;14353;46.070;13.222;2023-07-13T06:23:41;30.70;52.00
23377;DHT22;14353;46.070;13.222;2023-07-13T06:26:08;30.70;52.10
23377;DHT22;14353;46.070;13.222;2023-07-13T06:28:34;30.70;52.00
23377;DHT22;14353;46.070;13.222;2023-07-13T06:31:01;30.70;52.10
23377;DHT22;14353;46.070;13.222;2023-07-13T06:33:27;30.70;52.00
23377;DHT22;14353;46.070;13.222;2023-07-13T06:35:53;30.70;52.70
23377;DHT22;14353;46.070;13.222;2023-07-13T06:38:20;30.70;52.10
23377;DHT22;14353;46.070;13.222;2023-07-13T06:40:46;30.70;52.30
23377;DHT22;14353;46.070;13.222;2023-07-13T06:43:12;30.70;51.90
23377;DHT22;14353;46.070;13.222;2023-07-13T06:45:44;30.70;51.80
23377;DHT22;14353;46.070;13.222;2023-07-13T06:48:11;30.70;51.80
23377;DHT22;14353;46.070;13.222;2023-07-13T06:50:37;30.70;51.90
23377;DHT22;14353;46.070;13.222;2023-07-13T06:53:03;30.70;51.90
23377;DHT22;14353;46.070;13.222;2023-07-13T06:55:29;30.70;51.90
23377;DHT22;14353;46.070;13.222;2023-07-13T06:57:54;30.70;51.90
23377;DHT22;14353;46.070;13.222;2023-07-13T07:00:20;30.70;51.90
23377;DHT22;14353;46.070;13.222;2023-07-13T07:02:46;30.70;52.00
23377;DHT22;14353;46.070;13.222;2023-07-13T07:05:11;30.70;52.00
23377;DHT22;14353;46.070;13.222;2023-07-13T07:07:37;30.70;52.10
23377;DHT22;14353;46.070;13.222;2023-07-13T07:10:03;30.70;52.00
23377;DHT22;14353;46.070;13.222;2023-07-13T07:12:29;30.70;52.00
23377;DHT22;14353;46.070;13.222;2023-07-13T07:14:55;30.70;52.00
23377;DHT22;14353;46.070;13.222;2023-07-13T07:17:20;30.80;52.10
23377;DHT22;14353;46.070;13.222;2023-07-13T07:19:46;30.70;52.00
23377;DHT22;14353;46.070;13.222;2023-07-13T07:22:12;30.70;52.00
23377;DHT22;14353;46.070;13.222;2023-07-13T07:24:38;30.80;52.10
23377;DHT22;14353;46.070;13.222;2023-07-13T07:27:04;30.70;52.00
23377;DHT22;14353;46.070;13.222;2023-07-13T07:29:30;30.70;52.10
23377;DHT22;14353;46.070;13.222;2023-07-13T07:31:55;30.70;51.90
23377;DHT22;14353;46.070;13.222;2023-07-13T07:34:21;30.70;51.90
23377;DHT22;14353;46.070;13.222;2023-07-13T07:36:47;30.70;51.90
23377;DHT22;14353;46.070;13.222;2023-07-13T07:39:12;30.70;52.00
23377;DHT22;14353;46.070;13.222;2023-07-13T07:41:38;30.70;52.00
23377;DHT22;14353;46.070;13.222;2023-07-13T07:44:04;30.70;52.00
23377;DHT22;14353;46.070;13.222;2023-07-13T07:46:30;30.70;52.00
23377;DHT22;14353;46.070;13.222;2023-07-13T07:48:56;30.80;52.10
23377;DHT22;14353;46.070;13.222;2023-07-13T07:51:22;30.80;52.20
23377;DHT22;14353;46.070;13.222;2023-07-13T07:53:48;30.70;52.10
23377;DHT22;14353;46.070;13.222;2023-07-13T07:56:14;30.70;52.20
23377;DHT22;14353;46.070;13.222;2023-07-13T07:58:42;30.80;52.20
23377;DHT22;14353;46.070;13.222;2023-07-13T08:01:08;30.80;52.20
23377;DHT22;14353;46.070;13.222;2023-07-13T08:03:34;30.80;52.20
23377;DHT22;14353;46.070;13.222;2023-07-13T08:06:00;30.80;52.10
23377;DHT22;14353;46.070;13.222;2023-07-13T08:08:26;30.80;52.10
23377;DHT22;14353;46.070;13.222;2023-07-13T08:10:52;30.80;52.20
23377;DHT22;14353;46.070;13.222;2023-07-13T08:13:18;30.80;52.20
23377;DHT22;14353;46.070;13.222;2023-07-13T08:15:44;30.80;52.20
23377;DHT22;14353;46.070;13.222;2023-07-13T08:18:10;30.80;52.20
23377;DHT22;14353;46.070;13.222;2023-07-13T08:20:39;30.80;52.20
23377;DHT22;14353;46.070;13.222;2023-07-13T08:23:06;30.80;52.30
23377;DHT22;14353;46.070;13.222;2023-07-13T08:25:32;30.80;52.30
23377;DHT22;14353;46.070;13.222;2023-07-13T08:27:58;30.90;52.30
23377;DHT22;14353;46.070;13.222;2023-07-13T08:30:23;30.80;52.40
23377;DHT22;14353;46.070;13.222;2023-07-13T08:32:49;30.80;52.40
23377;DHT22;14353;46.070;13.222;2023-07-13T08:35:15;30.90;52.60
23377;DHT22;14353;46.070;13.222;2023-07-13T08:37:42;30.90;52.70
23377;DHT22;14353;46.070;13.222;2023-07-13T08:40:09;30.80;52.80
23377;DHT22;14353;46.070;13.222;2023-07-13T08:45:13;30.80;53.00
23377;DHT22;14353;46.070;13.222;2023-07-13T08:47:47;30.90;53.10
23377;DHT22;14353;46.070;13.222;2023-07-13T08:50:18;30.90;53.10
23377;DHT22;14353;46.070;13.222;2023-07-13T08:52:45;30.90;53.30
23377;DHT22;14353;46.070;13.222;2023-07-13T08:55:20;31.00;53.30
23377;DHT22;14353;46.070;13.222;2023-07-13T08:57:50;31.00;53.20
23377;DHT22;14353;46.070;13.222;2023-07-13T09:00:19;31.00;53.20
23377;DHT22;14353;46.070;13.222;2023-07-13T09:02:57;31.00;53.20
23377;DHT22;14353;46.070;13.222;2023-07-13T09:05:33;31.00;53.10
23377;DHT22;14353;46.070;13.222;2023-07-13T09:11:27;31.00;52.80
23377;DHT22;14353;46.070;13.222;2023-07-13T09:16:39;31.00;52.70
23377;DHT22;14353;46.070;13.222;2023-07-13T09:19:07;31.00;52.70
23377;DHT22;14353;46.070;13.222;2023-07-13T09:21:40;31.00;52.70
23377;DHT22;14353;46.070;13.222;2023-07-13T09:26:48;31.00;52.60
23377;DHT22;14353;46.070;13.222;2023-07-13T09:29:33;31.00;52.50
23377;DHT22;14353;46.070;13.222;2023-07-13T09:32:03;31.10;52.40
23377;DHT22;14353;46.070;13.222;2023-07-13T09:34:32;31.10;52.40
23377;DHT22;14353;46.070;13.222;2023-07-13T09:36:58;31.10;52.50
23377;DHT22;14353;46.070;13.222;2023-07-13T09:39:30;31.10;52.40
23377;DHT22;14353;46.070;13.222;2023-07-13T09:42:15;31.10;52.20
23377;DHT22;14353;46.070;13.222;2023-07-13T09:44:54;31.10;52.00
23377;DHT22;14353;46.070;13.222;2023-07-13T09:47:29;31.20;51.90
23377;DHT22;14353;46.070;13.222;2023-07-13T09:50:00;31.20;51.90
23377;DHT22;14353;46.070;13.222;2023-07-13T09:52:27;31.10;49.70
23377;DHT22;14353;46.070;13.222;2023-07-13T09:54:54;31.00;48.80
23377;DHT22;14353;46.070;13.222;2023-07-13T09:57:26;30.90;49.20
23377;DHT22;14353;46.070;13.222;2023-07-13T09:59:54;30.70;49.70
23377;DHT22;14353;46.070;13.222;2023-07-13T10:02:33;30.60;49.90
23377;DHT22;14353;46.070;13.222;2023-07-13T10:05:06;30.60;51.20
23377;DHT22;14353;46.070;13.222;2023-07-13T10:07:38;30.50;51.40
23377;DHT22;14353;46.070;13.222;2023-07-13T10:10:22;30.60;52.00
23377;DHT22;14353;46.070;13.222;2023-07-13T10:12:49;30.60;52.30
23377;DHT22;14353;46.070;13.222;2023-07-13T10:15:18;30.70;52.30
23377;DHT22;14353;46.070;13.222;2023-07-13T10:17:44;30.70;52.10
23377;DHT22;14353;46.070;13.222;2023-07-13T10:20:10;30.70;51.90
23377;DHT22;14353;46.070;13.222;2023-07-13T10:25:32;30.70;51.80
23377;DHT22;14353;46.070;13.222;2023-07-13T10:28:27;30.80;51.50
23377;DHT22;14353;46.070;13.222;2023-07-13T10:30:55;30.80;52.10
23377;DHT22;14353;46.070;13.222;2023-07-13T10:33:22;30.90;51.40
23377;DHT22;14353;46.070;13.222;2023-07-13T10:35:51;30.90;51.40
23377;DHT22;14353;46.070;13.222;2023-07-13T10:38:21;30.90;51.30
23377;DHT22;14353;46.070;13.222;2023-07-13T10:43:19;31.00;51.10
23377;DHT22;14353;46.070;13.222;2023-07-13T10:45:47;31.00;51.10
23377;DHT22;14353;46.070;13.222;2023-07-13T10:48:16;31.00;51.10
23377;DHT22;14353;46.070;13.222;2023-07-13T10:50:45;31.00;51.00
23377;DHT22;14353;46.070;13.222;2023-07-13T10:53:32;31.10;51.10
23377;DHT22;14353;46.070;13.222;2023-07-13T10:58:37;31.10;51.00
23377;DHT22;14353;46.070;13.222;2023-07-13T11:03:34;31.20;50.90
23377;DHT22;14353;46.070;13.222;2023-07-13T11:21:31;31.30;50.50
23377;DHT22;14353;46.070;13.222;2023-07-13T11:26:42;31.30;50.50
23377;DHT22;14353;46.070;13.222;2023-07-13T11:31:54;31.40;50.50
23377;DHT22;14353;46.070;13.222;2023-07-13T11:34:30;31.40;50.50
23377;DHT22;14353;46.070;13.222;2023-07-13T11:36:59;31.40;50.40
23377;DHT22;14353;46.070;13.222;2023-07-13T11:39:31;31.40;50.30
23377;DHT22;14353;46.070;13.222;2023-07-13T11:42:02;31.50;50.40
23377;DHT22;14353;46.070;13.222;2023-07-13T11:44:30;31.50;50.30
23377;DHT22;14353;46.070;13.222;2023-07-13T11:46:58;31.50;50.20
23377;DHT22;14353;46.070;13.222;2023-07-13T11:49:30;31.60;50.20
23377;DHT22;14353;46.070;13.222;2023-07-13T11:51:57;31.60;50.20
23377;DHT22;14353;46.070;13.222;2023-07-13T11:54:29;31.60;50.10
23377;DHT22;14353;46.070;13.222;2023-07-13T11:57:05;31.60;50.00
23377;DHT22;14353;46.070;13.222;2023-07-13T11:59:32;31.70;50.10
23377;DHT22;14353;46.070;13.222;2023-07-13T12:01:59;31.70;50.00
23377;DHT22;14353;46.070;13.222;2023-07-13T12:04:30;31.80;50.00
23377;DHT22;14353;46.070;13.222;2023-07-13T12:07:14;31.80;50.00
23377;DHT22;14353;46.070;13.222;2023-07-13T12:09:40;31.80;50.00
23377;DHT22;14353;46.070;13.222;2023-07-13T12:12:16;31.80;49.90
23377;DHT22;14353;46.070;13.222;2023-07-13T12:14:42;31.90;49.90
23377;DHT22;14353;46.070;13.222;2023-07-13T12:17:24;31.80;49.80
23377;DHT22;14353;46.070;13.222;2023-07-13T12:19:51;31.90;49.80
23377;DHT22;14353;46.070;13.222;2023-07-13T12:22:19;31.90;49.80
23377;DHT22;14353;46.070;13.222;2023-07-13T12:24:49;31.90;49.80
23377;DHT22;14353;46.070;13.222;2023-07-13T12:27:20;32.00;49.80
23377;DHT22;14353;46.070;13.222;2023-07-13T12:29:52;32.00;49.70
23377;DHT22;14353;46.070;13.222;2023-07-13T12:32:19;32.00;49.70
23377;DHT22;14353;46.070;13.222;2023-07-13T12:34:57;32.00;49.60
23377;DHT22;14353;46.070;13.222;2023-07-13T12:37:28;32.10;49.60
23377;DHT22;14353;46.070;13.222;2023-07-13T12:39:56;32.10;49.50
23377;DHT22;14353;46.070;13.222;2023-07-13T12:42:31;32.10;49.50
23377;DHT22;14353;46.070;13.222;2023-07-13T12:45:17;32.10;49.40
23377;DHT22;14353;46.070;13.222;2023-07-13T12:47:46;32.10;49.30
23377;DHT22;14353;46.070;13.222;2023-07-13T12:50:39;32.20;49.40
23377;DHT22;14353;46.070;13.222;2023-07-13T12:53:05;32.20;49.40
23377;DHT22;14353;46.070;13.222;2023-07-13T12:55:46;32.20;49.30
23377;DHT22;14353;46.070;13.222;2023-07-13T12:58:25;32.20;49.20
23377;DHT22;14353;46.070;13.222;2023-07-13T13:00:54;32.30;49.20
23377;DHT22;14353;46.070;13.222;2023-07-13T13:06:24;32.30;49.20
23377;DHT22;14353;46.070;13.222;2023-07-13T13:08:55;32.30;49.10
23377;DHT22;14353;46.070;13.222;2023-07-13T13:11:23;32.30;49.00
23377;DHT22;14353;46.070;13.222;2023-07-13T13:13:49;32.40;49.10
23377;DHT22;14353;46.070;13.222;2023-07-13T13:16:46;32.40;49.00
23377;DHT22;14353;46.070;13.222;2023-07-13T13:21:40;32.40;49.00
23377;DHT22;14353;46.070;13.222;2023-07-13T13:24:15;32.40;48.90
23377;DHT22;14353;46.070;13.222;2023-07-13T13:26:43;32.50;49.00
23377;DHT22;14353;46.070;13.222;2023-07-13T13:29:21;32.50;48.90
23377;DHT22;14353;46.070;13.222;2023-07-13T13:31:49;32.50;48.80
23377;DHT22;14353;46.070;13.222;2023-07-13T13:34:17;32.50;48.90
23377;DHT22;14353;46.070;13.222;2023-07-13T13:36:44;32.50;48.80
23377;DHT22;14353;46.070;13.222;2023-07-13T13:39:23;32.50;48.80
23377;DHT22;14353;46.070;13.222;2023-07-13T13:41:52;32.60;49.50
23377;DHT22;14353;46.070;13.222;2023-07-13T13:44:19;32.60;48.80
23377;DHT22;14353;46.070;13.222;2023-07-13T13:46:48;32.60;48.80
23377;DHT22;14353;46.070;13.222;2023-07-13T13:49:16;32.60;48.70
23377;DHT22;14353;46.070;13.222;2023-07-13T13:51:43;32.60;48.70
23377;DHT22;14353;46.070;13.222;2023-07-13T13:54:12;32.60;48.70
23377;DHT22;14353;46.070;13.222;2023-07-13T13:56:38;32.70;48.70
23377;DHT22;14353;46.070;13.222;2023-07-13T13:59:04;32.70;48.70
23377;DHT22;14353;46.070;13.222;2023-07-13T14:01:31;32.70;48.70
23377;DHT22;14353;46.070;13.222;2023-07-13T14:03:56;32.70;48.70
23377;DHT22;14353;46.070;13.222;2023-07-13T14:06:24;32.70;48.70
23377;DHT22;14353;46.070;13.222;2023-07-13T14:08:50;32.70;48.60
23377;DHT22;14353;46.070;13.222;2023-07-13T14:11:18;32.70;48.60
23377;DHT22;14353;46.070;13.222;2023-07-13T14:13:54;32.70;48.60
23377;DHT22;14353;46.070;13.222;2023-07-13T14:16:22;32.70;48.60
23377;DHT22;14353;46.070;13.222;2023-07-13T14:18:51;32.70;48.60
23377;DHT22;14353;46.070;13.222;2023-07-13T14:21:19;32.80;48.70
23377;DHT22;14353;46.070;13.222;2023-07-13T14:23:46;32.80;48.70
23377;DHT22;14353;46.070;13.222;2023-07-13T14:26:17;32.80;48.60
23377;DHT22;14353;46.070;13.222;2023-07-13T14:28:49;32.80;48.60
23377;DHT22;14353;46.070;13.222;2023-07-13T14:31:16;32.90;48.50
23377;DHT22;14353;46.070;13.222;2023-07-13T14:33:43;32.90;48.60
23377;DHT22;14353;46.070;13.222;2023-07-13T14:38:59;32.90;48.50
23377;DHT22;14353;46.070;13.222;2023-07-13T14:41:26;32.90;48.50
23377;DHT22;14353;46.070;13.222;2023-07-13T14:43:52;32.90;48.50
23377;DHT22;14353;46.070;13.222;2023-07-13T14:46:28;32.90;48.50
23377;DHT22;14353;46.070;13.222;2023-07-13T14:49:03;32.90;48.50
23377;DHT22;14353;46.070;13.222;2023-07-13T14:51:30;32.90;48.50
23377;DHT22;14353;46.070;13.222;2023-07-13T14:53:56;32.90;48.60
23377;DHT22;14353;46.070;13.222;2023-07-13T14:56:22;32.90;48.60
23377;DHT22;14353;46.070;13.222;2023-07-13T14:58:48;32.90;48.70
23377;DHT22;14353;46.070;13.222;2023-07-13T15:01:14;32.80;48.70
23377;DHT22;14353;46.070;13.222;2023-07-13T15:03:46;32.80;48.70
23377;DHT22;14353;46.070;13.222;2023-07-13T15:06:13;32.80;48.80
23377;DHT22;14353;46.070;13.222;2023-07-13T15:08:39;32.80;48.80
23377;DHT22;14353;46.070;13.222;2023-07-13T15:11:08;32.80;48.90
23377;DHT22;14353;46.070;13.222;2023-07-13T15:13:37;32.70;48.80
23377;DHT22;14353;46.070;13.222;2023-07-13T15:16:04;32.70;48.90
23377;DHT22;14353;46.070;13.222;2023-07-13T15:18:31;32.70;48.90
23377;DHT22;14353;46.070;13.222;2023-07-13T15:20:58;32.70;49.00
23377;DHT22;14353;46.070;13.222;2023-07-13T15:23:28;32.70;49.00
23377;DHT22;14353;46.070;13.222;2023-07-13T15:25:53;32.70;49.10
23377;DHT22;14353;46.070;13.222;2023-07-13T15:28:19;32.70;49.20
23377;DHT22;14353;46.070;13.222;2023-07-13T15:30:47;32.70;49.20
23377;DHT22;14353;46.070;13.222;2023-07-13T15:33:17;32.70;49.20
23377;DHT22;14353;46.070;13.222;2023-07-13T15:35:45;32.60;49.10
23377;DHT22;14353;46.070;13.222;2023-07-13T15:38:17;32.70;49.20
23377;DHT22;14353;46.070;13.222;2023-07-13T15:40:43;32.60;49.20
23377;DHT22;14353;46.070;13.222;2023-07-13T15:43:11;32.70;49.30
23377;DHT22;14353;46.070;13.222;2023-07-13T15:45:37;32.60;49.20
23377;DHT22;14353;46.070;13.222;2023-07-13T15:48:15;32.60;49.30
23377;DHT22;14353;46.070;13.222;2023-07-13T15:50:50;32.60;49.30
23377;DHT22;14353;46.070;13.222;2023-07-13T15:53:21;32.60;49.40
23377;DHT22;14353;46.070;13.222;2023-07-13T15:55:48;32.60;49.40
23377;DHT22;14353;46.070;13.222;2023-07-13T15:58:15;32.60;49.40
23377;DHT22;14353;46.070;13.222;2023-07-13T16:00:41;32.50;49.40
23377;DHT22;14353;46.070;13.222;2023-07-13T16:03:07;32.60;49.50
23377;DHT22;14353;46.070;13.222;2023-07-13T16:05:34;32.60;49.50
23377;DHT22;14353;46.070;13.222;2023-07-13T16:08:01;32.50;49.40
23377;DHT22;14353;46.070;13.222;2023-07-13T16:10:32;32.60;49.50
23377;DHT22;14353;46.070;13.222;2023-07-13T16:13:00;32.60;49.50
23377;DHT22;14353;46.070;13.222;2023-07-13T16:15:26;32.60;49.40